Time;durP1;ratioP1;P1;durP2;ratioP2;P2;SDS_P1;SDS_P2;PMS_P1;PMS_P2;Temp;Humidity;BMP_temperature;BMP_pressure;BME280_temperature;BME280_humidity;BME280_pressure;Samples;Min_cycle;Max_cycle;Signal;HPM_P1;HPM_P2
2022/09/15 00:00:21;;;;;;;36.28;20.08;;;;;;;;;;5015359;28;20037;-64
2022/09/15 00:02:47;;;;;;;31.02;19.48;;;;;;;;;;5014128;28;20026;-62
2022/09/15 00:05:13;;;;;;;33.42;19.75;;;;;;;;;;5046610;22;20049;-63
2022/09/15 00:07:39;;;;;;;30.15;19.52;;;;;;;;;;5052465;28;20040;-66
2022/09/15 00:10:06;;;;;;;29.77;19.17;;;;;;;;;;5052998;28;20545;-67
2022/09/15 00:12:32;;;;;;;33.55;21.10;;;;;;;;;;5052851;28;20021;-66
2022/09/15 00:14:59;;;;;;;32.75;20.55;;;;;;;;;;5052461;28;20028;-66
2022/09/15 00:17:25;;;;;;;36.20;20.55;;;;;;;;;;5052299;28;20393;-64
2022/09/15 00:19:51;;;;;;;31.90;20.92;;;;;;;;;;5052645;28;20028;-66
2022/09/15 00:22:19;;;;;;;32.05;20.70;;;;;;;;;;5052462;28;20044;-66
2022/09/15 00:24:48;;;;;;;31.95;19.98;;;;;;;;;;5052466;28;20016;-66
2022/09/15 00:27:14;;;;;;;35.58;21.35;;;;;;;;;;5052248;28;20102;-62
2022/09/15 00:29:40;;;;;;;35.15;19.35;;;;;;;;;;5052032;28;20072;-66
2022/09/15 00:32:06;;;;;;;33.83;21.20;;;;;;;;;;5051005;28;20035;-66
2022/09/15 00:34:32;;;;;;;36.63;21.98;;;;;;;;;;5052344;28;20025;-66
2022/09/15 00:36:58;;;;;;;35.78;22.10;;;;;;;;;;5052344;28;20518;-65
2022/09/15 00:39:24;;;;;;;37.30;21.55;;;;;;;;;;5052224;28;20060;-65
2022/09/15 00:41:50;;;;;;;36.63;22.45;;;;;;;;;;5051203;28;20063;-64
2022/09/15 00:44:16;;;;;;;35.55;23.02;;;;;;;;;;5051308;28;20404;-65
2022/09/15 00:46:43;;;;;;;38.72;20.73;;;;;;;;;;5052132;28;20021;-64
2022/09/15 00:49:16;;;;;;;36.10;22.80;;;;;;;;;;5052260;28;20385;-64
2022/09/15 00:51:59;;;;;;;36.92;22.65;;;;;;;;;;5052187;28;20060;-64
2022/09/15 00:54:37;;;;;;;38.03;21.67;;;;;;;;;;5052252;28;20021;-64
2022/09/15 00:57:05;;;;;;;41.35;24.58;;;;;;;;;;5052058;28;20022;-64
2022/09/15 00:59:31;;;;;;;;;;;;;;;;;;5052285;28;20469;-65
2022/09/15 01:02:03;;;;;;;38.80;22.30;;;;;;;;;;5052014;28;19911;-64
2022/09/15 01:04:29;;;;;;;37.95;22.30;;;;;;;;;;5050961;28;20025;-64
2022/09/15 01:06:59;;;;;;;37.80;22.30;;;;;;;;;;5051249;28;20477;-64
2022/09/15 01:09:31;;;;;;;38.47;23.23;;;;;;;;;;5050741;28;20497;-65
2022/09/15 01:11:57;;;;;;;38.38;21.52;;;;;;;;;;5050968;28;20092;-64
2022/09/15 01:14:23;;;;;;;34.15;21.98;;;;;;;;;;5052307;28;20096;-65
2022/09/15 01:16:58;;;;;;;37.15;22.17;;;;;;;;;;5051845;28;20420;-66
2022/09/15 01:19:33;;;;;;;37.25;22.95;;;;;;;;;;5051788;28;20078;-65
2022/09/15 01:22:16;;;;;;;33.47;23.08;;;;;;;;;;5051974;28;20070;-64
2022/09/15 01:24:48;;;;;;;34.55;21.58;;;;;;;;;;5052072;28;20031;-64
2022/09/15 01:27:20;;;;;;;34.50;22.48;;;;;;;;;;5051720;28;20020;-65
2022/09/15 01:30:05;;;;;;;35.95;21.55;;;;;;;;;;5051560;28;20029;-64
2022/09/15 01:33:03;;;;;;;37.35;21.65;;;;;;;;;;5051732;28;20025;-65
2022/09/15 01:35:30;;;;;;;36.45;22.80;;;;;;;;;;5051864;28;20021;-65
2022/09/15 01:38:00;;;;;;;34.80;23.02;;;;;;;;;;5051830;28;20036;-65
2022/09/15 01:40:28;;;;;;;35.13;22.60;;;;;;;;;;5051657;28;20028;-65
2022/09/15 01:42:54;;;;;;;;;;;;;;;;;;5052612;28;20025;-63
2022/09/15 01:45:26;;;;;;;36.33;22.40;;;;;;;;;;5050410;28;19966;-65
2022/09/15 01:47:53;;;;;;;36.53;23.27;;;;;;;;;;5051863;28;20075;-65
2022/09/15 01:50:23;;;;;;;38.45;23.65;;;;;;;;;;5051789;28;20033;-64
2022/09/15 01:52:51;;;;;;;36.78;22.70;;;;;;;;;;5050382;28;20618;-64
2022/09/15 01:55:21;;;;;;;35.10;22.70;;;;;;;;;;5052066;28;20025;-65
2022/09/15 01:57:47;;;;;;;36.17;22.90;;;;;;;;;;5051438;28;20040;-64
2022/09/15 02:00:13;;;;;;;32.83;22.35;;;;;;;;;;5050707;28;20028;-64
2022/09/15 02:02:53;;;;;;;33.83;21.83;;;;;;;;;;5051897;28;20021;-65
2022/09/15 02:05:19;;;;;;;35.58;22.10;;;;;;;;;;5050467;28;20056;-62
2022/09/15 02:07:51;;;;;;;32.45;21.42;;;;;;;;;;5051605;28;20385;-65
2022/09/15 02:10:31;;;;;;;33.72;21.98;;;;;;;;;;5051753;28;20049;-65
2022/09/15 02:13:02;;;;;;;33.08;22.33;;;;;;;;;;5050274;28;20108;-65
2022/09/15 02:15:30;;;;;;;30.95;21.02;;;;;;;;;;5050194;28;20021;-65
2022/09/15 02:17:58;;;;;;;35.88;20.90;;;;;;;;;;5051892;28;20029;-64
2022/09/15 02:20:24;;;;;;;28.92;20.02;;;;;;;;;;5053918;28;20025;-64
2022/09/15 02:22:53;;;;;;;31.52;20.50;;;;;;;;;;5053844;28;20028;-67
2022/09/15 02:25:22;;;;;;;29.90;19.85;;;;;;;;;;5055055;28;20067;-64
2022/09/15 02:27:53;;;;;;;29.08;18.45;;;;;;;;;;5053461;28;20439;-65
2022/09/15 02:30:20;;;;;;;30.75;19.70;;;;;;;;;;5054920;28;20041;-65
2022/09/15 02:32:56;;;;;;;28.55;18.25;;;;;;;;;;5053794;28;20025;-65
2022/09/15 02:35:24;;;;;;;28.83;18.58;;;;;;;;;;5054851;28;20036;-64
2022/09/15 02:37:50;;;;;;;29.17;18.60;;;;;;;;;;5054572;28;20028;-64
2022/09/15 02:40:17;;;;;;;28.63;18.08;;;;;;;;;;5053527;28;20032;-65
2022/09/15 02:42:51;;;;;;;28.08;19.10;;;;;;;;;;5054624;28;20436;-65
2022/09/15 02:45:18;;;;;;;28.05;17.38;;;;;;;;;;5053457;28;20543;-65
2022/09/15 02:47:44;;;;;;;29.27;18.88;;;;;;;;;;5053202;28;20428;-65
2022/09/15 02:50:10;;;;;;;26.42;16.52;;;;;;;;;;5054853;28;20037;-65
2022/09/15 02:52:37;;;;;;;29.45;16.50;;;;;;;;;;5054703;28;20037;-65
2022/09/15 02:55:03;;;;;;;26.70;16.23;;;;;;;;;;5053498;28;20029;-65
2022/09/15 02:57:29;;;;;;;25.23;15.77;;;;;;;;;;5053114;28;20021;-64
2022/09/15 03:00:13;;;;;;;27.10;15.65;;;;;;;;;;5053356;28;20029;-65
2022/09/15 03:02:44;;;;;;;23.55;14.02;;;;;;;;;;5054769;28;20055;-65
2022/09/15 03:05:10;;;;;;;25.05;13.45;;;;;;;;;;5054318;28;20063;-65
2022/09/15 03:07:37;;;;;;;28.52;14.27;;;;;;;;;;5054106;28;20025;-65
2022/09/15 03:10:04;;;;;;;23.67;13.27;;;;;;;;;;5054110;28;20478;-65
2022/09/15 03:12:30;;;;;;;22.00;13.75;;;;;;;;;;5054108;28;20029;-67
2022/09/15 03:14:56;;;;;;;23.75;13.82;;;;;;;;;;5054321;28;20413;-65
2022/09/15 03:17:22;;;;;;;19.33;12.07;;;;;;;;;;5053799;28;20029;-65
2022/09/15 03:19:48;;;;;;;25.67;12.85;;;;;;;;;;5054273;28;20025;-66
2022/09/15 03:22:14;;;;;;;23.90;13.05;;;;;;;;;;5054368;28;20025;-65
2022/09/15 03:24:41;;;;;;;20.65;12.93;;;;;;;;;;5052540;28;20017;-65
2022/09/15 03:27:07;;;;;;;22.95;12.93;;;;;;;;;;5052434;28;20021;-65
2022/09/15 03:29:33;;;;;;;21.90;13.75;;;;;;;;;;5052762;28;20100;-64
2022/09/15 03:31:59;;;;;;;22.90;12.88;;;;;;;;;;5052486;28;20560;-65
2022/09/15 03:34:25;;;;;;;19.95;12.80;;;;;;;;;;5053719;28;20029;-65
2022/09/15 03:36:51;;;;;;;26.05;13.00;;;;;;;;;;5053542;28;20033;-65
2022/09/15 03:39:17;;;;;;;23.00;12.77;;;;;;;;;;5052043;28;20495;-64
2022/09/15 03:41:43;;;;;;;22.70;13.60;;;;;;;;;;5052373;28;20071;-64
2022/09/15 03:44:09;;;;;;;22.55;12.90;;;;;;;;;;5053235;28;20373;-65
2022/09/15 03:46:35;;;;;;;22.95;12.40;;;;;;;;;;5053344;28;20029;-65
2022/09/15 03:49:01;;;;;;;22.30;13.02;;;;;;;;;;5053298;28;20496;-66
2022/09/15 03:51:27;;;;;;;22.50;12.60;;;;;;;;;;5053363;28;20025;-65
2022/09/15 03:53:55;;;;;;;22.40;13.07;;;;;;;;;;5053351;28;20036;-65
2022/09/15 03:56:26;;;;;;;23.33;13.43;;;;;;;;;;5051849;28;20029;-64
2022/09/15 03:58:52;;;;;;;21.70;13.00;;;;;;;;;;5053089;28;20727;-65
2022/09/15 04:01:19;;;;;;;24.02;13.10;;;;;;;;;;5053345;28;20037;-65
2022/09/15 04:03:45;;;;;;;23.65;12.75;;;;;;;;;;5053110;28;20036;-66
2022/09/15 04:06:11;;;;;;;22.13;13.40;;;;;;;;;;5052728;28;20041;-65
2022/09/15 04:08:37;;;;;;;24.02;14.48;;;;;;;;;;5052699;28;20103;-65
2022/09/15 04:11:08;;;;;;;21.45;13.90;;;;;;;;;;5051505;28;20163;-65
2022/09/15 04:13:35;;;;;;;21.55;13.45;;;;;;;;;;5051766;28;20031;-65
2022/09/15 04:16:01;;;;;;;23.95;13.50;;;;;;;;;;5053071;28;20025;-65
2022/09/15 04:18:28;;;;;;;23.55;13.52;;;;;;;;;;5051398;28;20059;-65
2022/09/15 04:20:58;;;;;;;22.23;13.27;;;;;;;;;;5048964;28;20029;-64
2022/09/15 04:23:24;;;;;;;21.83;13.73;;;;;;;;;;5052612;28;20155;-64
2022/09/15 04:25:57;;;;;;;22.73;14.05;;;;;;;;;;5052600;28;20057;-64
2022/09/15 04:28:24;;;;;;;23.55;14.15;;;;;;;;;;5052173;28;20455;-64
2022/09/15 04:30:50;;;;;;;23.83;13.65;;;;;;;;;;5051343;28;20032;-65
2022/09/15 04:33:16;;;;;;;23.27;15.00;;;;;;;;;;5052668;28;20469;-63
2022/09/15 04:35:42;;;;;;;26.92;15.35;;;;;;;;;;5052231;28;20063;-66
2022/09/15 04:38:09;;;;;;;28.83;16.90;;;;;;;;;;5052160;28;20488;-64
2022/09/15 04:40:35;;;;;;;24.98;15.63;;;;;;;;;;5052245;28;20104;-66
2022/09/15 04:43:01;;;;;;;24.58;15.68;;;;;;;;;;5051177;28;20020;-65
2022/09/15 04:45:27;;;;;;;24.50;15.70;;;;;;;;;;5052110;28;20488;-66
2022/09/15 04:47:53;;;;;;;26.65;16.63;;;;;;;;;;5051655;28;20043;-66
2022/09/15 04:50:19;;;;;;;24.40;16.08;;;;;;;;;;5052429;28;20032;-64
2022/09/15 04:52:45;;;;;;;26.35;16.25;;;;;;;;;;5052398;28;20028;-64
2022/09/15 04:55:11;;;;;;;22.58;15.90;;;;;;;;;;5052018;28;20507;-64
2022/09/15 04:57:37;;;;;;;23.90;15.18;;;;;;;;;;5052152;28;20021;-65
2022/09/15 05:00:06;;;;;;;23.50;16.52;;;;;;;;;;5051811;28;20036;-63
2022/09/15 05:02:32;;;;;;;23.67;16.95;;;;;;;;;;5050706;28;20039;-64
2022/09/15 05:04:58;;;;;;;25.92;15.40;;;;;;;;;;5051627;28;20032;-63
2022/09/15 05:07:25;;;;;;;26.90;15.77;;;;;;;;;;5051775;28;20029;-65
2022/09/15 05:09:52;;;;;;;23.73;15.40;;;;;;;;;;5052228;28;20025;-65
2022/09/15 05:12:18;;;;;;;26.65;15.70;;;;;;;;;;5051797;28;20039;-65
2022/09/15 05:14:44;;;;;;;24.08;15.95;;;;;;;;;;5051648;28;20032;-65
2022/09/15 05:17:10;;;;;;;28.77;16.42;;;;;;;;;;5051553;28;20035;-63
2022/09/15 05:19:36;;;;;;;25.85;15.48;;;;;;;;;;5051540;28;20017;-64
2022/09/15 05:22:02;;;;;;;24.08;16.88;;;;;;;;;;5051896;28;20359;-65
2022/09/15 05:24:28;;;;;;;26.35;15.80;;;;;;;;;;5050419;28;20039;-64
2022/09/15 05:26:54;;;;;;;23.90;15.95;;;;;;;;;;5051572;28;20052;-65
2022/09/15 05:29:20;;;;;;;25.77;15.52;;;;;;;;;;5051447;28;20028;-65
2022/09/15 05:31:46;;;;;;;24.05;16.27;;;;;;;;;;5051777;28;20017;-65
2022/09/15 05:34:11;;;;;;;24.95;14.93;;;;;;;;;;5051422;28;20025;-62
2022/09/15 05:36:38;;;;;;;27.88;16.42;;;;;;;;;;5051423;28;20017;-65
2022/09/15 05:39:03;;;;;;;24.65;15.75;;;;;;;;;;5051207;28;20044;-65
2022/09/15 05:41:30;;;;;;;22.10;13.95;;;;;;;;;;5051125;28;20025;-66
2022/09/15 05:43:56;;;;;;;23.52;14.93;;;;;;;;;;5051128;28;20032;-65
2022/09/15 05:46:24;;;;;;;22.38;14.40;;;;;;;;;;5051368;28;20021;-65
2022/09/15 05:48:53;;;;;;;21.20;13.90;;;;;;;;;;5049598;28;20452;-64
2022/09/15 05:51:19;;;;;;;25.27;14.00;;;;;;;;;;5051466;28;20031;-65
2022/09/15 05:53:45;;;;;;;26.08;14.50;;;;;;;;;;5053265;28;20029;-65
2022/09/15 05:56:12;;;;;;;22.77;12.93;;;;;;;;;;5053599;28;20068;-66
2022/09/15 05:58:39;;;;;;;21.52;12.73;;;;;;;;;;5055102;28;20025;-64
2022/09/15 06:01:06;;;;;;;23.25;13.95;;;;;;;;;;5053778;28;20024;-65
2022/09/15 06:03:33;;;;;;;28.08;13.20;;;;;;;;;;5054647;28;20429;-63
2022/09/15 06:05:59;;;;;;;22.15;12.90;;;;;;;;;;5055799;28;20036;-64
2022/09/15 06:08:25;;;;;;;20.00;13.00;;;;;;;;;;5054903;28;20025;-66
2022/09/15 06:10:51;;;;;;;20.65;12.77;;;;;;;;;;5055056;28;20151;-64
2022/09/15 06:13:17;;;;;;;22.20;12.82;;;;;;;;;;5055193;28;20036;-65
2022/09/15 06:15:43;;;;;;;21.63;12.02;;;;;;;;;;5054644;28;20032;-65
2022/09/15 06:18:09;;;;;;;22.67;13.65;;;;;;;;;;5054770;28;20036;-65
2022/09/15 06:20:35;;;;;;;22.85;13.00;;;;;;;;;;5054507;28;20546;-65
2022/09/15 06:23:01;;;;;;;23.60;14.25;;;;;;;;;;5054762;28;20025;-65
2022/09/15 06:25:28;;;;;;;25.25;13.90;;;;;;;;;;5055058;28;20025;-65
2022/09/15 06:27:54;;;;;;;23.33;13.52;;;;;;;;;;5054704;28;20048;-65
2022/09/15 06:30:20;;;;;;;21.48;12.65;;;;;;;;;;5054727;28;20079;-64
2022/09/15 06:32:48;;;;;;;20.05;12.20;;;;;;;;;;5054985;28;20044;-66
2022/09/15 06:35:14;;;;;;;21.52;12.98;;;;;;;;;;5054774;28;20045;-66
2022/09/15 06:37:40;;;;;;;21.30;12.60;;;;;;;;;;5054468;28;20025;-67
2022/09/15 06:40:06;;;;;;;21.20;11.80;;;;;;;;;;5054735;28;20055;-67
2022/09/15 06:42:32;;;;;;;21.83;12.20;;;;;;;;;;5054654;28;20117;-66
2022/09/15 06:44:59;;;;;;;22.23;12.27;;;;;;;;;;5053346;28;20501;-67
2022/09/15 06:47:25;;;;;;;19.73;11.70;;;;;;;;;;5054335;28;20046;-66
2022/09/15 06:49:53;;;;;;;20.85;11.65;;;;;;;;;;5053524;28;20478;-67
2022/09/15 06:52:20;;;;;;;21.47;11.87;;;;;;;;;;5054212;28;20150;-66
2022/09/15 06:54:46;;;;;;;20.55;11.63;;;;;;;;;;5054475;28;20029;-67
2022/09/15 06:57:12;;;;;;;19.42;10.65;;;;;;;;;;5054167;28;20393;-65
2022/09/15 06:59:38;;;;;;;20.02;10.98;;;;;;;;;;5054498;28;20083;-67
2022/09/15 07:02:04;;;;;;;19.63;10.70;;;;;;;;;;5053257;28;20036;-65
2022/09/15 07:04:30;;;;;;;19.23;11.27;;;;;;;;;;5052179;28;20543;-67
2022/09/15 07:06:56;;;;;;;20.88;11.85;;;;;;;;;;5054334;28;20485;-65
2022/09/15 07:09:22;;;;;;;18.70;11.38;;;;;;;;;;5054058;28;20029;-66
2022/09/15 07:11:48;;;;;;;20.35;10.65;;;;;;;;;;5054055;28;20102;-66
2022/09/15 07:14:14;;;;;;;18.02;10.05;;;;;;;;;;5053954;28;20398;-65
2022/09/15 07:16:40;;;;;;;21.23;9.60;;;;;;;;;;5054003;28;20503;-66
2022/09/15 07:19:06;;;;;;;19.13;10.82;;;;;;;;;;5054298;28;20025;-65
2022/09/15 07:21:33;;;;;;;18.50;10.07;;;;;;;;;;5053988;28;20033;-65
2022/09/15 07:23:59;;;;;;;18.55;9.95;;;;;;;;;;5053807;28;20021;-65
2022/09/15 07:26:29;;;;;;;18.17;9.50;;;;;;;;;;5053966;28;20024;-66
2022/09/15 07:28:59;;;;;;;18.15;9.82;;;;;;;;;;5053808;28;20029;-67
2022/09/15 07:31:26;;;;;;;19.17;10.38;;;;;;;;;;5053371;28;20047;-66
2022/09/15 07:33:52;;;;;;;19.10;9.88;;;;;;;;;;5053509;28;20155;-63
2022/09/15 07:36:19;;;;;;;18.50;9.70;;;;;;;;;;5053218;28;20028;-65
2022/09/15 07:38:46;;;;;;;16.92;9.07;;;;;;;;;;5052924;28;20025;-65
2022/09/15 07:41:18;;;;;;;19.10;9.30;;;;;;;;;;5053369;28;20025;-66
2022/09/15 07:43:47;;;;;;;19.95;9.60;;;;;;;;;;5053691;28;20790;-65
2022/09/15 07:46:14;;;;;;;17.92;8.77;;;;;;;;;;5053455;28;20017;-66
2022/09/15 07:48:40;;;;;;;17.73;8.52;;;;;;;;;;5051773;28;20025;-57
2022/09/15 07:51:06;;;;;;;18.42;9.02;;;;;;;;;;5054029;28;20028;-68
2022/09/15 07:53:32;;;;;;;17.55;8.50;;;;;;;;;;5054308;28;20020;-68
2022/09/15 07:55:58;;;;;;;17.13;8.02;;;;;;;;;;5053341;28;20072;-68
2022/09/15 07:58:25;;;;;;;15.68;7.68;;;;;;;;;;5052863;28;20104;-68
2022/09/15 08:00:51;;;;;;;18.95;7.55;;;;;;;;;;5051488;28;20028;-68
2022/09/15 08:03:17;;;;;;;17.27;9.15;;;;;;;;;;5053457;28;20058;-68
2022/09/15 08:05:43;;;;;;;18.52;8.40;;;;;;;;;;5052451;28;20025;-67
2022/09/15 08:08:09;;;;;;;16.05;8.40;;;;;;;;;;5052476;28;20107;-69
2022/09/15 08:10:38;;;;;;;17.15;7.55;;;;;;;;;;5052723;28;20460;-68
2022/09/15 08:13:05;;;;;;;16.48;8.32;;;;;;;;;;5053217;28;20078;-68
2022/09/15 08:15:31;;;;;;;17.67;8.32;;;;;;;;;;5051232;28;20025;-68
2022/09/15 08:17:57;;;;;;;15.43;8.30;;;;;;;;;;5051655;28;20048;-68
2022/09/15 08:20:23;;;;;;;18.55;9.32;;;;;;;;;;5052714;28;20441;-68
2022/09/15 08:22:48;;;;;;;17.65;9.40;;;;;;;;;;5052656;28;20078;-69
2022/09/15 08:25:15;;;;;;;18.15;9.27;;;;;;;;;;5052769;28;20057;-68
2022/09/15 08:27:41;;;;;;;16.38;8.60;;;;;;;;;;5052347;28;20062;-68
2022/09/15 08:30:07;;;;;;;18.42;8.88;;;;;;;;;;5052410;28;20029;-68
2022/09/15 08:32:33;;;;;;;19.25;8.40;;;;;;;;;;5052285;28;20036;-69
2022/09/15 08:34:59;;;;;;;17.88;7.88;;;;;;;;;;5052341;28;20017;-65
2022/09/15 08:37:25;;;;;;;18.15;8.70;;;;;;;;;;5052231;28;20051;-65
2022/09/15 08:39:51;;;;;;;17.42;8.43;;;;;;;;;;5052286;28;20106;-66
2022/09/15 08:42:18;;;;;;;16.90;9.02;;;;;;;;;;5052227;28;20402;-65
2022/09/15 08:44:44;;;;;;;30.13;9.20;;;;;;;;;;5050792;28;20409;-65
2022/09/15 08:47:10;;;;;;;17.17;8.90;;;;;;;;;;5052048;28;20025;-63
2022/09/15 08:49:36;;;;;;;15.68;8.80;;;;;;;;;;5050833;28;20392;-64
2022/09/15 08:52:04;;;;;;;17.52;8.75;;;;;;;;;;5052142;28;20106;-64
2022/09/15 08:54:30;;;;;;;;;;;;;;;;;;5051199;28;20017;-65
2022/09/15 08:56:57;;;;;;;20.67;9.35;;;;;;;;;;5051902;28;19940;-67
2022/09/15 08:59:32;;;;;;;18.35;8.73;;;;;;;;;;5051394;28;20393;-65
2022/09/15 09:02:12;;;;;;;17.83;8.90;;;;;;;;;;5051841;28;20025;-64
2022/09/15 09:04:56;;;;;;;19.50;8.82;;;;;;;;;;5051708;28;20028;-64
2022/09/15 09:07:38;;;;;;;17.95;8.90;;;;;;;;;;5051647;28;20033;-64
2022/09/15 09:10:12;;;;;;;17.42;8.63;;;;;;;;;;5051535;28;20541;-64
2022/09/15 09:12:41;;;;;;;17.42;9.20;;;;;;;;;;5050448;28;20477;-66
2022/09/15 09:15:19;;;;;;;18.40;9.00;;;;;;;;;;5050128;28;20036;-65
2022/09/15 09:17:45;;;;;;;;;;;;;;;;;;5051984;28;20128;-63
2022/09/15 09:20:14;;;;;;;19.60;8.98;;;;;;;;;;5051324;28;19908;-64
2022/09/15 09:22:43;;;;;;;17.80;8.45;;;;;;;;;;5051319;28;20070;-65
2022/09/15 09:25:09;;;;;;;;;;;;;;;;;;5051956;28;20025;-65
2022/09/15 09:27:35;;;;;;;16.50;8.60;;;;;;;;;;5050420;28;19905;-67
2022/09/15 09:30:03;;;;;;;15.75;8.70;;;;;;;;;;5051414;28;20063;-64
2022/09/15 09:32:43;;;;;;;18.98;8.43;;;;;;;;;;5051373;28;20025;-67
2022/09/15 09:35:27;;;;;;;15.45;8.32;;;;;;;;;;5050717;28;20104;-64
2022/09/15 09:37:53;;;;;;;17.60;8.43;;;;;;;;;;5050815;28;20036;-65
2022/09/15 09:40:20;;;;;;;18.38;8.82;;;;;;;;;;5050775;28;20028;-65
2022/09/15 09:42:46;;;;;;;22.08;8.80;;;;;;;;;;5051291;28;20029;-65
2022/09/15 09:45:17;;;;;;;17.27;9.27;;;;;;;;;;5051082;28;20029;-65
2022/09/15 09:47:43;;;;;;;15.10;8.13;;;;;;;;;;5051514;28;20028;-64
2022/09/15 09:50:28;;;;;;;17.73;8.60;;;;;;;;;;5051404;28;20017;-65
2022/09/15 09:52:54;;;;;;;22.73;9.93;;;;;;;;;;5030403;28;20033;-64
2022/09/15 09:55:24;;;;;;;16.40;8.80;;;;;;;;;;5036602;28;20144;-66
2022/09/15 09:57:50;;;;;;;15.98;9.30;;;;;;;;;;5050626;28;20032;-64
2022/09/15 10:00:39;;;;;;;16.25;8.57;;;;;;;;;;5051450;28;20097;-65
2022/09/15 10:03:15;;;;;;;18.42;8.75;;;;;;;;;;5042120;28;20422;-63
2022/09/15 10:05:41;;;;;;;16.83;8.32;;;;;;;;;;5050934;28;20350;-64
2022/09/15 10:08:14;;;;;;;17.30;8.05;;;;;;;;;;5051084;28;20048;-64
2022/09/15 10:10:48;;;;;;;16.52;8.65;;;;;;;;;;5051242;28;20021;-65
2022/09/15 10:13:14;;;;;;;15.52;8.45;;;;;;;;;;5051148;28;20104;-64
2022/09/15 10:15:40;;;;;;;20.33;9.35;;;;;;;;;;5050869;28;20480;-63
2022/09/15 10:18:08;;;;;;;16.73;8.38;;;;;;;;;;5050645;28;20095;-64
2022/09/15 10:20:37;;;;;;;17.73;8.73;;;;;;;;;;5050931;28;20025;-64
2022/09/15 10:23:03;;;;;;;16.40;8.48;;;;;;;;;;5051115;28;20035;-64
2022/09/15 10:25:32;;;;;;;17.55;8.38;;;;;;;;;;5052447;28;20017;-64
2022/09/15 10:28:01;;;;;;;16.73;8.27;;;;;;;;;;5052185;28;20136;-64
2022/09/15 10:30:27;;;;;;;15.02;8.25;;;;;;;;;;5052398;28;20056;-63
2022/09/15 10:32:53;;;;;;;15.63;8.25;;;;;;;;;;5054998;28;20036;-64
2022/09/15 10:35:20;;;;;;;17.90;9.10;;;;;;;;;;5053282;28;20036;-65
2022/09/15 10:38:16;;;;;;;15.85;8.73;;;;;;;;;;5051302;28;20052;-65
2022/09/15 10:40:55;;;;;;;16.75;9.05;;;;;;;;;;5049366;28;20486;-64
2022/09/15 10:43:47;;;;;;;17.42;8.77;;;;;;;;;;5054394;28;20021;-66
2022/09/15 10:46:19;;;;;;;16.33;8.80;;;;;;;;;;5045665;28;20033;-64
2022/09/15 10:48:57;;;;;;;17.73;9.05;;;;;;;;;;5053825;28;20120;-64
2022/09/15 10:51:26;;;;;;;15.38;9.00;;;;;;;;;;5052864;28;20021;-66
2022/09/15 10:53:52;;;;;;;17.38;9.05;;;;;;;;;;5052711;28;20489;-66
2022/09/15 10:56:33;;;;;;;17.33;8.90;;;;;;;;;;5053839;28;20222;-64
2022/09/15 10:59:18;;;;;;;16.23;8.90;;;;;;;;;;5054098;28;20025;-66
2022/09/15 11:01:57;;;;;;;15.50;8.57;;;;;;;;;;5053978;28;20523;-64
2022/09/15 11:04:35;;;;;;;15.38;8.68;;;;;;;;;;5054010;28;20025;-65
2022/09/15 11:07:04;;;;;;;17.15;8.77;;;;;;;;;;5052442;28;20053;-66
2022/09/15 11:09:37;;;;;;;16.38;8.30;;;;;;;;;;5053638;28;20040;-66
2022/09/15 11:12:22;;;;;;;14.88;8.40;;;;;;;;;;5053583;28;20025;-65
2022/09/15 11:14:49;;;;;;;18.52;8.70;;;;;;;;;;5054023;28;20497;-65
2022/09/15 11:17:37;;;;;;;15.60;8.85;;;;;;;;;;5053431;28;20024;-65
2022/09/15 11:20:04;;;;;;;14.60;8.95;;;;;;;;;;5053740;28;20028;-66
2022/09/15 11:22:53;;;;;;;17.60;9.77;;;;;;;;;;5053629;28;20013;-67
2022/09/15 11:25:24;;;;;;;15.88;9.13;;;;;;;;;;5053321;28;20098;-65
2022/09/15 11:28:08;;;;;;;16.02;9.23;;;;;;;;;;5053594;28;20029;-67
2022/09/15 11:30:40;;;;;;;15.35;9.02;;;;;;;;;;5054022;28;20531;-67
2022/09/15 11:33:06;;;;;;;15.70;8.90;;;;;;;;;;5052091;28;20029;-66
2022/09/15 11:35:32;;;;;;;18.17;9.60;;;;;;;;;;5053183;28;20055;-65
2022/09/15 11:38:01;;;;;;;16.15;8.65;;;;;;;;;;5053228;28;20495;-65
2022/09/15 11:40:27;;;;;;;16.33;8.80;;;;;;;;;;5053347;28;20499;-64
2022/09/15 11:43:16;;;;;;;15.77;8.95;;;;;;;;;;5053412;28;20135;-66
2022/09/15 11:45:44;;;;;;;16.27;8.60;;;;;;;;;;5052866;28;20445;-65
2022/09/15 11:48:10;;;;;;;;;;;;;;;;;;5053173;28;20095;-65
2022/09/15 11:50:38;;;;;;;14.02;7.55;;;;;;;;;;5052213;28;19904;-65
2022/09/15 11:53:17;;;;;;;14.32;7.63;;;;;;;;;;5051619;28;20116;-64
2022/09/15 11:55:49;;;;;;;16.25;7.50;;;;;;;;;;5051644;28;20511;-66
2022/09/15 11:58:26;;;;;;;14.32;8.05;;;;;;;;;;5053273;28;20124;-64
2022/09/15 12:00:54;;;;;;;16.38;8.00;;;;;;;;;;5072563;28;20025;-64
2022/09/15 12:03:28;;;;;;;14.55;7.70;;;;;;;;;;5072767;28;20065;-64
2022/09/15 12:06:07;;;;;;;15.90;7.95;;;;;;;;;;5085855;22;20075;-62
2022/09/15 12:08:36;;;;;;;15.25;8.02;;;;;;;;;;5067535;28;20056;-62
2022/09/15 12:11:04;;;;;;;15.18;8.23;;;;;;;;;;5053295;28;20104;-64
2022/09/15 12:13:31;;;;;;;16.67;8.55;;;;;;;;;;5046740;28;20024;-63
2022/09/15 12:16:00;;;;;;;16.27;8.70;;;;;;;;;;5053105;28;20036;-62
2022/09/15 12:18:34;;;;;;;17.05;9.20;;;;;;;;;;5052490;28;20104;-60
2022/09/15 12:21:15;;;;;;;16.27;8.60;;;;;;;;;;5038813;28;20072;-61
2022/09/15 12:23:44;;;;;;;16.63;8.90;;;;;;;;;;5033240;28;20041;-65
2022/09/15 12:26:13;;;;;;;15.43;8.65;;;;;;;;;;5043970;28;20063;-66
2022/09/15 12:28:41;;;;;;;15.95;8.10;;;;;;;;;;5053098;28;20029;-67
2022/09/15 12:31:12;;;;;;;15.38;8.52;;;;;;;;;;5053321;28;20047;-66
2022/09/15 12:33:56;;;;;;;16.05;8.75;;;;;;;;;;5053553;28;20021;-66
2022/09/15 12:36:34;;;;;;;15.27;8.60;;;;;;;;;;5055327;28;20082;-65
2022/09/15 12:39:01;;;;;;;16.15;9.65;;;;;;;;;;5055034;28;20098;-67
2022/09/15 12:41:28;;;;;;;17.38;8.30;;;;;;;;;;5054940;28;20116;-66
2022/09/15 12:43:55;;;;;;;15.70;8.50;;;;;;;;;;5054548;28;20017;-67
2022/09/15 12:46:21;;;;;;;18.38;9.35;;;;;;;;;;5053297;28;20032;-66
2022/09/15 12:48:47;;;;;;;18.00;8.77;;;;;;;;;;4697647;28;10000187;-68
2022/09/15 12:51:21;;;;;;;16.02;8.68;;;;;;;;;;5031929;28;20472;-66
2022/09/15 12:53:47;;;;;;;19.77;9.55;;;;;;;;;;5030798;28;20025;-66
2022/09/15 12:56:40;;;;;;;18.10;8.98;;;;;;;;;;5030872;28;20347;-65
2022/09/15 12:59:10;;;;;;;14.20;9.23;;;;;;;;;;5037874;28;20664;-66
2022/09/15 13:01:42;;;;;;;18.30;9.20;;;;;;;;;;5040925;28;20087;-65
2022/09/15 13:04:08;;;;;;;15.77;8.85;;;;;;;;;;5037582;28;20021;-66
2022/09/15 13:06:34;;;;;;;14.65;9.13;;;;;;;;;;5039342;28;20032;-65
2022/09/15 13:09:00;;;;;;;18.98;9.38;;;;;;;;;;5033391;28;20025;-65
2022/09/15 13:11:27;;;;;;;18.35;9.90;;;;;;;;;;5030242;28;20025;-65
2022/09/15 13:13:57;;;;;;;15.40;9.10;;;;;;;;;;5029963;28;20064;-66
2022/09/15 13:16:28;;;;;;;15.68;9.05;;;;;;;;;;5030123;28;20029;-66
2022/09/15 13:19:05;;;;;;;15.15;9.20;;;;;;;;;;5030301;28;20032;-67
2022/09/15 13:21:33;;;;;;;15.27;9.68;;;;;;;;;;5024730;28;20068;-65
2022/09/15 13:24:02;;;;;;;15.27;8.75;;;;;;;;;;5019053;28;20348;-68
2022/09/15 13:26:30;;;;;;;14.57;9.20;;;;;;;;;;5009193;28;20089;-69
2022/09/15 13:28:56;;;;;;;16.25;9.27;;;;;;;;;;5010096;28;20022;-68
2022/09/15 13:31:25;;;;;;;17.08;9.35;;;;;;;;;;5010599;28;20030;-66
2022/09/15 13:33:52;;;;;;;16.17;8.70;;;;;;;;;;4696573;28;10000543;-68
2022/09/15 13:36:21;;;;;;;16.50;8.80;;;;;;;;;;5030413;28;20313;-67
2022/09/15 13:38:47;;;;;;;16.30;9.10;;;;;;;;;;5031613;28;20510;-68
2022/09/15 13:41:31;;;;;;;15.77;8.85;;;;;;;;;;5036556;28;20036;-67
2022/09/15 13:44:16;;;;;;;15.45;9.30;;;;;;;;;;5036955;28;20021;-68
2022/09/15 13:47:01;;;;;;;16.73;9.18;;;;;;;;;;5042833;28;20017;-68
2022/09/15 13:49:39;;;;;;;18.52;9.63;;;;;;;;;;5054116;28;20596;-69
2022/09/15 13:52:07;;;;;;;15.50;9.35;;;;;;;;;;5033547;28;20025;-69
2022/09/15 13:54:33;;;;;;;17.50;8.90;;;;;;;;;;5032601;28;20366;-70
2022/09/15 13:57:00;;;;;;;16.02;8.90;;;;;;;;;;5031551;28;20686;-69
2022/09/15 13:59:28;;;;;;;17.10;9.20;;;;;;;;;;5039781;28;20018;-69
2022/09/15 14:01:55;;;;;;;16.17;10.07;;;;;;;;;;5046099;28;20037;-70
2022/09/15 14:04:27;;;;;;;19.95;9.00;;;;;;;;;;5052898;28;20079;-70
2022/09/15 14:06:55;;;;;;;14.50;8.90;;;;;;;;;;5051843;28;20064;-65
2022/09/15 14:09:21;;;;;;;15.35;8.90;;;;;;;;;;5050426;28;20044;-65
2022/09/15 14:11:48;;;;;;;16.75;9.23;;;;;;;;;;5052225;28;20024;-65
2022/09/15 14:14:26;;;;;;;15.02;8.50;;;;;;;;;;5052894;28;20025;-64
2022/09/15 14:16:52;;;;;;;19.42;8.82;;;;;;;;;;5055539;28;20070;-65
2022/09/15 14:19:37;;;;;;;16.10;8.45;;;;;;;;;;5055302;28;20032;-66
2022/09/15 14:22:23;;;;;;;16.77;8.68;;;;;;;;;;5035492;28;20373;-64
2022/09/15 14:24:49;;;;;;;13.80;8.20;;;;;;;;;;5028218;28;20026;-64
2022/09/15 14:27:20;;;;;;;18.20;8.63;;;;;;;;;;5015871;28;20037;-63
2022/09/15 14:29:49;;;;;;;16.38;8.55;;;;;;;;;;5015383;28;20085;-64
2022/09/15 14:32:16;;;;;;;17.52;8.90;;;;;;;;;;5014282;28;20410;-64
2022/09/15 14:34:42;;;;;;;17.35;8.40;;;;;;;;;;5015166;28;20045;-64
2022/09/15 14:37:21;;;;;;;17.73;8.50;;;;;;;;;;5015577;28;20467;-63